createdAt,value
2019-04-21T00:01:38.764Z,12.73
2019-04-21T00:07:04.436Z,11.48
2019-04-21T00:12:13.969Z,11.15
2019-04-21T00:17:07.914Z,12.82
2019-04-21T00:22:19.171Z,12.37
2019-04-21T00:27:33.451Z,13.00
2019-04-21T00:32:35.583Z,13.55
2019-04-21T00:37:53.470Z,14.10
2019-04-21T00:43:01.076Z,15.30
2019-04-21T00:48:14.439Z,15.75
2019-04-21T00:53:40.125Z,15.75
2019-04-21T00:58:39.033Z,16.93
2019-04-21T01:03:53.059Z,16.52
2019-04-21T01:08:59.039Z,16.57
2019-04-21T01:14:07.057Z,14.30
2019-04-21T01:19:14.304Z,15.05
2019-04-21T01:24:05.455Z,12.85
2019-04-21T01:29:34.335Z,13.62
2019-04-21T01:34:39.175Z,13.90
2019-04-21T01:39:57.176Z,14.45
2019-04-21T01:44:52.319Z,14.80
2019-04-21T01:49:53.500Z,14.00
2019-04-21T01:55:24.919Z,14.93
2019-04-21T02:00:41.981Z,13.62
2019-04-21T02:05:59.966Z,14.53
2019-04-21T02:11:05.246Z,13.78
2019-04-21T02:16:11.310Z,14.23
2019-04-21T02:21:14.892Z,14.58
2019-04-21T02:26:28.469Z,13.85
2019-04-21T02:32:07.877Z,14.13
2019-04-21T02:37:13.182Z,12.80
2019-04-21T02:47:07.085Z,12.25
2019-04-21T02:52:27.453Z,11.45
2019-04-21T02:57:24.169Z,10.98
2019-04-21T03:13:13.800Z,11.75
2019-04-21T03:23:29.801Z,10.85
2019-04-21T03:28:36.887Z,11.85
2019-04-21T03:34:14.802Z,11.73
2019-04-21T03:38:45.356Z,12.65
2019-04-21T03:44:02.955Z,12.47
2019-04-21T03:49:12.475Z,11.88
2019-04-21T03:54:15.517Z,12.58
2019-04-21T03:59:16.258Z,11.53
2019-04-21T04:05:08.810Z,10.82
2019-04-21T04:10:19.655Z,11.50
2019-04-21T04:15:30.760Z,14.15
2019-04-21T04:20:42.594Z,12.78
2019-04-21T04:25:42.852Z,11.68
2019-04-21T04:46:29.003Z,12.13
2019-04-21T04:56:48.374Z,13.45
2019-04-21T05:02:05.709Z,14.05
2019-04-21T05:07:11.842Z,14.28
2019-04-21T05:12:05.874Z,15.15
2019-04-21T05:17:26.944Z,17.20
2019-04-21T05:27:29.594Z,18.17
2019-04-21T05:33:03.985Z,17.02
2019-04-21T05:38:16.689Z,16.17
2019-04-21T05:43:28.339Z,14.10
2019-04-21T05:48:48.381Z,13.72
2019-04-21T05:53:56.150Z,14.23
2019-04-21T05:59:02.415Z,13.83
2019-04-21T06:04:16.987Z,12.70
2019-04-21T06:09:19.023Z,13.10
2019-04-21T06:14:29.426Z,13.08
2019-04-21T06:19:44.808Z,12.65
2019-04-21T06:25:06.899Z,12.75
2019-04-21T06:29:54.505Z,12.40
2019-04-21T06:45:36.575Z,10.70
2019-04-21T06:50:46.751Z,10.13
2019-04-21T06:55:54.832Z,8.90
2019-04-21T07:00:56.324Z,9.05
2019-04-21T07:06:08.099Z,9.48
2019-04-21T07:11:08.420Z,8.18
2019-04-21T07:16:25.202Z,7.83
2019-04-21T07:21:35.651Z,6.95
2019-04-21T07:26:42.429Z,7.67
2019-04-21T07:31:55.597Z,6.92
2019-04-21T07:41:59.343Z,6.72
2019-04-21T07:47:11.729Z,6.33
2019-04-21T07:52:37.749Z,6.45
2019-04-21T07:57:35.230Z,5.75
2019-04-21T08:02:51.139Z,5.35
2019-04-21T08:08:05.194Z,5.83
2019-04-21T08:13:10.006Z,5.10
2019-04-21T08:18:13.080Z,5.37
2019-04-21T08:23:26.228Z,5.47
2019-04-21T08:28:35.451Z,4.90
2019-04-21T08:38:48.417Z,4.80
2019-04-21T08:43:58.907Z,5.40
2019-04-21T08:49:08.124Z,5.30
2019-04-21T08:54:16.493Z,4.33
2019-04-21T09:00:01.507Z,4.67
2019-04-21T09:05:05.251Z,5.55
2019-04-21T09:10:15.553Z,5.15
2019-04-21T09:15:19.093Z,4.72
2019-04-21T09:20:33.839Z,4.70
2019-04-21T09:25:40.585Z,5.20
2019-04-21T09:30:26.470Z,4.65
2019-04-21T09:35:33.527Z,4.60
2019-04-21T09:40:45.453Z,4.67
2019-04-21T09:45:49.634Z,4.15
2019-04-21T09:50:57.438Z,5.60
2019-04-21T09:56:07.898Z,5.37
2019-04-21T10:01:20.377Z,6.35
2019-04-21T10:06:21.025Z,5.65
2019-04-21T10:11:28.717Z,5.83
2019-04-21T10:16:40.961Z,5.97
2019-04-21T10:21:47.863Z,5.37
2019-04-21T10:26:55.410Z,5.25
2019-04-21T10:32:02.035Z,5.12
2019-04-21T10:37:09.133Z,5.35
2019-04-21T10:42:17.233Z,5.42
2019-04-21T10:47:24.799Z,3.75
2019-04-21T10:52:49.402Z,4.12
2019-04-21T10:58:30.436Z,4.00
2019-04-21T11:04:02.710Z,3.60
2019-04-21T11:09:13.855Z,4.20
2019-04-21T11:14:21.104Z,4.37
2019-04-21T11:19:28.619Z,4.05
2019-04-21T11:24:36.719Z,3.47
2019-04-21T11:29:43.327Z,3.90
2019-04-21T11:34:51.497Z,3.30
2019-04-21T11:40:05.492Z,4.00
2019-04-21T11:45:08.344Z,3.75
2019-04-21T11:50:15.158Z,3.52
2019-04-21T11:55:22.919Z,2.98
2019-04-21T12:00:29.723Z,3.50
2019-04-21T12:05:37.287Z,3.90
2019-04-21T12:10:45.146Z,3.55
2019-04-21T12:15:52.801Z,3.47
2019-04-21T12:20:59.498Z,3.90
2019-04-21T12:26:07.589Z,3.00
2019-04-21T12:31:29.768Z,3.47
2019-04-21T12:36:37.936Z,3.73
2019-04-21T12:41:44.835Z,3.33
2019-04-21T12:46:51.974Z,3.00
2019-04-21T12:51:59.649Z,2.87
2019-04-21T12:57:07.640Z,3.10
2019-04-21T13:02:15.837Z,3.05
2019-04-21T13:07:23.637Z,2.80
2019-04-21T13:12:31.116Z,2.83
2019-04-21T13:17:39.327Z,2.47
2019-04-21T13:22:46.250Z,2.58
2019-04-21T13:27:52.974Z,2.40
2019-04-21T13:33:00.855Z,2.50
2019-04-21T13:38:18.675Z,2.27
2019-04-21T13:43:17.068Z,2.65
2019-04-21T13:48:24.365Z,2.80
2019-04-21T13:53:32.717Z,1.85
2019-04-21T13:58:40.167Z,2.22
2019-04-21T14:03:47.266Z,2.85
2019-04-21T14:08:54.724Z,2.50
2019-04-21T14:14:02.658Z,2.47
2019-04-21T14:19:09.760Z,2.33
2019-04-21T14:24:17.197Z,1.90
2019-04-21T14:29:23.978Z,2.05
2019-04-21T14:34:30.569Z,2.50
2019-04-21T14:39:49.749Z,2.52
2019-04-21T14:44:46.870Z,2.08
2019-04-21T14:50:22.271Z,2.27
2019-04-21T14:55:31.076Z,2.52
2019-04-21T15:01:06.024Z,3.05
2019-04-21T15:06:13.535Z,4.40
2019-04-21T15:11:20.319Z,2.67
2019-04-21T15:16:26.971Z,2.85
2019-04-21T15:21:33.670Z,2.20
2019-04-21T15:26:42.051Z,2.60
2019-04-21T15:31:48.857Z,1.82
2019-04-21T15:36:55.673Z,2.83
2019-04-21T15:42:02.790Z,1.82
2019-04-21T15:47:10.216Z,2.75
2019-04-21T15:52:17.872Z,2.33
2019-04-21T15:57:49.539Z,2.72
2019-04-21T16:02:56.198Z,1.90
2019-04-21T16:08:03.582Z,2.27
2019-04-21T16:13:11.716Z,2.15
2019-04-21T16:18:18.423Z,2.10
2019-04-21T16:23:26.499Z,4.97
2019-04-21T16:28:33.407Z,3.37
2019-04-21T16:33:41.034Z,6.42
2019-04-21T16:38:49.201Z,6.12
2019-04-21T16:43:56.034Z,2.80
2019-04-21T16:49:04.070Z,4.20
2019-04-21T16:54:22.033Z,3.62
2019-04-21T16:59:32.772Z,2.20
2019-04-21T17:04:40.298Z,2.30
2019-04-21T17:09:48.515Z,2.08
2019-04-21T17:15:10.466Z,2.30
2019-04-21T17:20:17.183Z,2.22
2019-04-21T17:25:14.083Z,2.30
2019-04-21T17:30:22.334Z,2.02
2019-04-21T17:35:29.101Z,2.20
2019-04-21T17:40:37.855Z,4.65
2019-04-21T17:45:45.052Z,2.70
2019-04-21T17:51:03.399Z,3.05
2019-04-21T17:56:31.470Z,2.40
2019-04-21T18:01:45.771Z,2.70
2019-04-21T18:07:26.535Z,4.25
2019-04-21T18:12:32.256Z,2.83
2019-04-21T18:17:24.629Z,19.55
2019-04-21T18:22:51.368Z,5.65
2019-04-21T18:27:58.672Z,6.40
2019-04-21T18:33:17.436Z,5.45
2019-04-21T18:38:25.901Z,3.80
2019-04-21T18:48:49.678Z,4.87
2019-04-21T18:54:25.171Z,4.12
2019-04-21T18:59:12.351Z,4.50
2019-04-21T19:04:24.760Z,5.28
2019-04-21T19:10:10.301Z,4.40
2019-04-21T19:14:50.634Z,4.35
2019-04-21T19:20:19.416Z,5.37
2019-04-21T19:25:09.956Z,6.20
2019-04-21T19:35:11.670Z,5.85
2019-04-21T19:40:37.616Z,5.45
2019-04-21T19:45:36.779Z,4.67
2019-04-21T19:50:57.834Z,4.95
2019-04-21T19:55:43.839Z,5.50
2019-04-21T20:00:53.675Z,7.33
2019-04-21T20:06:10.586Z,6.62
2019-04-21T20:11:26.704Z,6.72
2019-04-21T20:16:41.429Z,5.90
2019-04-21T20:21:28.947Z,5.60
2019-04-21T20:26:41.650Z,5.55
2019-04-21T20:31:55.111Z,5.80
2019-04-21T20:37:09.603Z,6.45
2019-04-21T20:42:18.122Z,6.10
2019-04-21T20:47:19.765Z,6.12
2019-04-21T20:52:35.895Z,6.78
2019-04-21T20:57:40.831Z,6.55
2019-04-21T21:02:52.104Z,6.83
2019-04-21T21:08:08.724Z,5.95
2019-04-21T21:13:14.680Z,5.83
2019-04-21T21:18:26.824Z,6.58
2019-04-21T21:23:20.446Z,6.85
2019-04-21T21:28:32.773Z,6.75
2019-04-21T21:33:50.816Z,6.55
2019-04-21T21:38:55.965Z,5.90
2019-04-21T21:43:45.189Z,6.10
2019-04-21T21:49:03.104Z,7.17
2019-04-21T21:53:59.155Z,7.65
2019-04-21T21:59:11.742Z,6.55
2019-04-21T22:04:20.956Z,7.45
2019-04-21T22:09:24.091Z,8.33
2019-04-21T22:14:36.921Z,7.10
2019-04-21T22:20:03.075Z,7.05
2019-04-21T22:24:59.117Z,6.53
2019-04-21T22:29:59.797Z,6.53
2019-04-21T22:35:09.263Z,6.37
2019-04-21T22:40:24.053Z,5.83
2019-04-21T22:45:23.178Z,6.05
2019-04-21T22:50:34.907Z,7.22
2019-04-21T22:55:42.948Z,5.85
2019-04-21T23:00:55.936Z,6.20
2019-04-21T23:06:08.630Z,6.25
2019-04-21T23:11:11.983Z,6.00
2019-04-21T23:16:21.480Z,6.10
2019-04-21T23:21:48.950Z,5.83
2019-04-21T23:26:46.258Z,5.25
2019-04-21T23:32:00.802Z,5.33
2019-04-21T23:36:58.771Z,5.53
2019-04-21T23:42:00.910Z,6.60
2019-04-21T23:47:12.027Z,6.55
2019-04-21T23:52:17.081Z,5.45
2019-04-21T23:57:30.268Z,5.12
